Time;durP1;ratioP1;P1;durP2;ratioP2;P2;SDS_P1;SDS_P2;PMS_P1;PMS_P2;Temp;Humidity;BMP_temperature;BMP_pressure;BME280_temperature;BME280_humidity;BME280_pressure;Samples;Min_cycle;Max_cycle;Signal;HPM_P1;HPM_P2
2021/12/27 00:02:18;;;;;;;144.43;66.65;;;;;;;2.77;82.87;99499.38;5090345;28;20016;-51
2021/12/27 00:04:44;;;;;;;146.27;69.90;;;;;;;2.62;83.54;99514.91;5090673;28;20356;-49
2021/12/27 00:07:10;;;;;;;134.50;65.95;;;;;;;2.79;82.99;99523.69;5090402;28;20562;-50
2021/12/27 00:09:36;;;;;;;134.80;65.60;;;;;;;2.95;82.80;99507.13;5087780;28;20027;-52
2021/12/27 00:12:02;;;;;;;138.85;67.45;;;;;;;3.03;82.36;99503.75;5090317;28;20099;-50
2021/12/27 00:14:28;;;;;;;139.98;65.43;;;;;;;2.94;82.02;99516.84;5090426;28;20093;-53
2021/12/27 00:16:54;;;;;;;136.80;65.80;;;;;;;2.90;82.51;99517.31;5090324;28;20480;-53
2021/12/27 00:19:19;;;;;;;139.52;68.00;;;;;;;2.94;80.98;99506.31;5090426;28;20035;-50
2021/12/27 00:21:44;;;;;;;139.95;66.00;;;;;;;2.73;82.95;99519.88;5090575;28;20104;-51
2021/12/27 00:24:10;;;;;;;134.63;63.28;;;;;;;2.76;82.10;99524.03;5090497;28;20113;-50
2021/12/27 00:26:35;;;;;;;133.77;63.50;;;;;;;2.83;82.82;99526.81;5090003;28;20499;-51
2021/12/27 00:29:01;;;;;;;142.25;65.45;;;;;;;2.97;82.39;99514.88;5090206;28;20096;-50
2021/12/27 00:31:26;;;;;;;137.93;66.30;;;;;;;2.77;82.19;99506.44;5090155;28;20372;-52
2021/12/27 00:33:52;;;;;;;137.35;65.20;;;;;;;2.90;81.82;99512.88;5090280;28;20403;-51
2021/12/27 00:36:17;;;;;;;139.15;66.30;;;;;;;2.88;82.96;99514.84;5089750;28;20027;-52
2021/12/27 00:38:43;;;;;;;134.05;63.47;;;;;;;2.84;83.36;99510.09;5090393;28;20624;-52
2021/12/27 00:41:08;;;;;;;141.63;65.72;;;;;;;2.82;82.78;99506.75;5090879;28;20093;-50
2021/12/27 00:43:34;;;;;;;129.98;62.88;;;;;;;2.81;81.74;99511.22;5090987;28;20031;-51
2021/12/27 00:45:59;;;;;;;126.53;61.67;;;;;;;2.86;81.84;99500.22;5090991;28;20468;-51
2021/12/27 00:48:25;;;;;;;131.38;63.63;;;;;;;2.79;82.04;99504.47;5090721;28;20027;-51
2021/12/27 00:50:50;;;;;;;127.80;63.20;;;;;;;2.64;81.69;99489.28;5090699;28;20103;-50
2021/12/27 00:53:16;;;;;;;135.15;63.15;;;;;;;2.78;82.31;99487.03;5090809;28;20028;-50
2021/12/27 00:55:41;;;;;;;143.05;67.07;;;;;;;2.80;81.99;99490.34;5090517;28;20406;-51
2021/12/27 00:58:07;;;;;;;137.75;64.75;;;;;;;2.73;81.72;99508.56;5090660;28;20031;-52
2021/12/27 01:00:32;;;;;;;135.13;61.17;;;;;;;2.69;82.87;99528.25;5090209;28;20020;-51
2021/12/27 01:02:58;;;;;;;122.05;58.22;;;;;;;2.78;83.31;99494.94;5090165;28;20039;-51
2021/12/27 01:05:24;;;;;;;136.15;67.32;;;;;;;2.82;83.32;99477.84;5089798;28;20047;-50
2021/12/27 01:07:50;;;;;;;132.13;62.95;;;;;;;2.85;82.94;99480.19;5088321;28;20052;-51
2021/12/27 01:10:48;;;;;;;133.07;60.97;;;;;;;2.84;82.02;99483.81;5089524;28;20016;-51
2021/12/27 01:18:04;;;;;;;110.72;54.60;;;;;;;2.80;83.62;99479.81;5089769;28;20112;-51
2021/12/27 01:20:30;;;;;;;116.85;54.55;;;;;;;2.83;82.87;99496.09;5088840;28;20056;-52
2021/12/27 01:22:55;;;;;;;115.40;56.90;;;;;;;3.04;82.49;99497.47;5090019;28;20373;-49
2021/12/27 01:25:21;;;;;;;122.72;59.38;;;;;;;2.93;82.07;99488.91;5089775;28;20031;-51
2021/12/27 01:27:47;;;;;;;118.80;57.00;;;;;;;2.84;83.57;99495.13;5089639;28;20032;-50
2021/12/27 01:30:15;;;;;;;123.65;58.30;;;;;;;2.83;83.64;99474.25;5089646;28;20034;-50
2021/12/27 01:32:47;;;;;;;124.90;61.00;;;;;;;2.99;83.03;99478.72;5089997;28;20061;-50
2021/12/27 01:35:13;;;;;;;117.32;55.20;;;;;;;3.05;82.65;99489.44;5089925;28;20085;-51
2021/12/27 01:37:38;;;;;;;120.20;55.05;;;;;;;3.01;82.38;99498.63;5089893;28;20028;-53
2021/12/27 01:40:05;;;;;;;113.25;53.67;;;;;;;3.11;82.30;99483.53;5090038;28;20023;-51
2021/12/27 01:42:30;;;;;;;111.15;51.47;;;;;;;3.03;83.35;99474.81;5090197;28;20404;-50
2021/12/27 01:44:56;;;;;;;107.70;52.25;;;;;;;3.11;82.51;99478.28;5088369;28;20062;-49
2021/12/27 01:47:21;;;;;;;102.43;48.83;;;;;;;2.95;83.64;99472.97;5089680;28;20444;-49
2021/12/27 01:49:46;;;;;;;105.82;51.88;;;;;;;3.10;83.30;99457.38;5089940;28;20028;-49
2021/12/27 01:52:12;;;;;;;105.38;51.67;;;;;;;3.07;83.40;99468.25;5089912;28;20028;-50
2021/12/27 01:54:37;;;;;;;109.40;53.88;;;;;;;3.17;82.18;99458.38;5090029;28;20020;-49
2021/12/27 01:57:03;;;;;;;111.97;53.92;;;;;;;3.24;82.56;99458.59;5090195;28;20111;-48
2021/12/27 01:59:28;;;;;;;110.63;52.55;;;;;;;2.94;82.96;99461.63;5089663;28;20127;-49
2021/12/27 02:01:54;;;;;;;114.53;53.53;;;;;;;3.06;83.05;99471.84;5089768;28;20089;-52
2021/12/27 02:04:19;;;;;;;109.18;52.20;;;;;;;2.93;82.70;99474.94;5089525;28;20081;-51
2021/12/27 02:06:45;;;;;;;108.97;50.40;;;;;;;2.89;82.75;99471.81;5089649;28;20056;-49
2021/12/27 02:09:10;;;;;;;104.85;52.40;;;;;;;2.94;83.01;99464.25;5089469;28;20024;-51
2021/12/27 02:11:36;;;;;;;107.38;55.15;;;;;;;2.97;82.50;99442.09;5088894;28;20024;-51
2021/12/27 02:14:03;;;;;;;107.45;50.22;;;;;;;3.01;82.75;99455.72;5088888;28;20025;-52
2021/12/27 02:16:29;;;;;;;107.53;50.22;;;;;;;3.03;82.34;99473.00;5088983;28;20036;-50
2021/12/27 02:18:54;;;;;;;103.40;49.28;;;;;;;2.87;82.39;99465.06;5089017;28;20020;-49
2021/12/27 02:21:20;;;;;;;99.88;47.25;;;;;;;2.85;83.58;99459.16;5089018;28;20515;-50
2021/12/27 02:23:48;;;;;;;105.60;50.42;;;;;;;2.89;83.74;99450.81;5089532;28;20415;-49
2021/12/27 02:26:13;;;;;;;99.55;48.80;;;;;;;2.96;83.53;99448.34;5089887;28;20467;-50
2021/12/27 02:28:39;;;;;;;100.55;48.30;;;;;;;2.90;83.46;99443.72;5089822;28;20016;-50
2021/12/27 02:31:04;;;;;;;106.13;49.20;;;;;;;3.01;83.08;99446.06;5089799;28;20100;-50
2021/12/27 02:33:30;;;;;;;96.18;46.50;;;;;;;3.02;82.39;99441.63;5088333;28;20036;-50
2021/12/27 02:35:57;;;;;;;103.18;47.05;;;;;;;2.92;82.56;99434.69;5089721;28;20060;-51
2021/12/27 02:38:30;;;;;;;100.75;50.92;;;;;;;2.98;81.63;99433.22;5089321;28;20156;-50
2021/12/27 02:40:56;;;;;;;102.68;50.38;;;;;;;2.91;82.10;99442.72;5088758;28;20056;-52
2021/12/27 02:43:23;;;;;;;97.70;49.20;;;;;;;3.17;82.14;99439.97;5089271;28;20395;-51
2021/12/27 02:45:50;;;;;;;96.18;48.03;;;;;;;3.16;81.85;99435.72;5089442;28;20422;-51
2021/12/27 02:48:17;;;;;;;107.43;51.72;;;;;;;3.20;81.06;99436.19;5089204;28;20483;-49
2021/12/27 02:50:43;;;;;;;103.22;49.28;;;;;;;3.05;81.17;99436.03;5089354;28;20024;-49
2021/12/27 02:53:09;;;;;;;99.45;48.17;;;;;;;2.76;82.09;99445.19;5089175;28;20024;-50
2021/12/27 02:55:34;;;;;;;88.82;46.15;;;;;;;2.69;82.42;99436.28;5089130;28;20030;-52
2021/12/27 02:58:00;;;;;;;90.78;45.38;;;;;;;2.58;83.42;99444.47;5089444;28;20020;-51
2021/12/27 03:00:29;;;;;;;96.72;46.58;;;;;;;2.43;82.58;99438.97;5091235;28;20043;-49
2021/12/27 03:02:55;;;;;;;98.32;46.53;;;;;;;2.62;83.71;99433.47;5093089;28;20659;-51
2021/12/27 03:05:21;;;;;;;98.40;48.72;;;;;;;2.62;83.46;99449.22;5092856;28;20089;-51
2021/12/27 03:07:48;;;;;;;102.43;47.00;;;;;;;2.53;83.38;99445.75;5092723;28;20185;-50
2021/12/27 03:10:14;;;;;;;109.70;52.45;;;;;;;2.56;83.71;99428.84;5092744;28;20472;-47
2021/12/27 03:12:40;;;;;;;103.28;47.22;;;;;;;2.47;83.22;99424.53;5092371;28;20101;-50
2021/12/27 03:15:07;;;;;;;102.13;48.33;;;;;;;2.52;83.00;99430.16;5092702;28;20036;-50
2021/12/27 03:17:32;;;;;;;100.13;48.97;;;;;;;2.31;83.16;99433.19;5092663;28;20039;-49
2021/12/27 03:19:58;;;;;;;99.32;47.67;;;;;;;2.43;83.15;99429.28;5093000;28;20020;-51
2021/12/27 03:22:23;;;;;;;105.97;48.30;;;;;;;2.41;83.25;99438.31;5092453;28;20015;-51
2021/12/27 03:24:48;;;;;;;103.35;48.00;;;;;;;2.33;84.78;99442.56;5092231;28;20024;-50
2021/12/27 03:27:14;;;;;;;107.40;49.30;;;;;;;2.45;84.13;99432.59;5092554;28;20028;-52
2021/12/27 03:29:39;;;;;;;104.47;47.85;;;;;;;2.57;83.52;99441.03;5092433;28;20024;-48
2021/12/27 03:32:05;;;;;;;109.22;51.13;;;;;;;2.43;83.52;99444.25;5092474;28;20442;-51
2021/12/27 03:34:33;;;;;;;107.10;49.80;;;;;;;2.61;83.81;99444.97;5092204;28;20035;-51
2021/12/27 03:36:59;;;;;;;103.78;48.78;;;;;;;2.55;84.08;99437.69;5092311;28;20344;-49
2021/12/27 03:39:24;;;;;;;98.10;47.65;;;;;;;2.63;84.37;99440.38;5092232;28;20034;-49
2021/12/27 03:41:50;;;;;;;102.85;47.97;;;;;;;2.50;83.51;99442.63;5090780;28;20020;-53
2021/12/27 03:44:15;;;;;;;100.65;49.85;;;;;;;2.44;83.45;99435.38;5091947;28;20012;-52
2021/12/27 03:46:40;;;;;;;106.00;50.22;;;;;;;2.53;83.61;99429.16;5091907;28;20109;-52
2021/12/27 03:49:06;;;;;;;107.35;50.08;;;;;;;2.45;83.50;99434.38;5091998;28;20024;-50
2021/12/27 03:51:31;;;;;;;104.68;49.03;;;;;;;2.49;83.77;99448.84;5091706;28;20024;-51
2021/12/27 03:53:57;;;;;;;98.22;49.05;;;;;;;2.42;83.19;99451.31;5091806;28;20059;-50
2021/12/27 03:56:23;;;;;;;102.00;48.40;;;;;;;2.43;83.01;99444.25;5091583;28;20028;-52
2021/12/27 03:59:19;;;;;;;111.47;52.65;;;;;;;2.47;82.88;99446.38;5091631;28;20024;-49
2021/12/27 04:01:43;;;;;;;108.72;52.33;;;;;;;2.41;84.48;99468.03;5091635;28;20136;-52
2021/12/27 04:04:09;;;;;;;110.95;53.30;;;;;;;2.37;83.56;99466.69;5091549;28;20059;-53
2021/12/27 04:06:34;;;;;;;111.32;50.17;;;;;;;2.46;83.54;99459.69;5091158;28;20357;-50
2021/12/27 04:09:00;;;;;;;113.75;53.97;;;;;;;2.58;83.04;99458.41;5091926;28;20160;-51
2021/12/27 04:11:25;;;;;;;107.93;54.42;;;;;;;2.52;83.71;99440.66;5090536;28;20082;-50
2021/12/27 04:13:51;;;;;;;109.38;53.72;;;;;;;2.42;83.27;99455.72;5091381;28;20134;-49
2021/12/27 04:16:16;;;;;;;107.78;51.17;;;;;;;2.60;82.66;99445.94;5091311;28;20016;-51
2021/12/27 04:18:42;;;;;;;109.43;52.13;;;;;;;2.57;83.15;99448.06;5091235;28;20016;-51
2021/12/27 04:21:07;;;;;;;107.90;51.38;;;;;;;2.39;82.33;99441.09;5090960;28;20453;-53
2021/12/27 04:23:33;;;;;;;107.53;51.03;;;;;;;2.42;83.35;99443.41;5091001;28;20024;-51
2021/12/27 04:25:58;;;;;;;111.47;52.35;;;;;;;2.39;83.38;99454.22;5090789;28;20422;-51
2021/12/27 04:28:24;;;;;;;102.57;49.20;;;;;;;2.32;83.94;99443.53;5091128;28;20024;-52
2021/12/27 04:30:49;;;;;;;111.63;54.15;;;;;;;2.39;83.80;99450.78;5091304;28;20487;-50
2021/12/27 04:33:15;;;;;;;111.82;52.63;;;;;;;2.68;83.12;99442.50;5091122;28;20483;-51
2021/12/27 04:35:40;;;;;;;108.43;52.33;;;;;;;2.68;82.15;99445.13;5091182;28;20388;-50
2021/12/27 04:38:06;;;;;;;110.72;51.85;;;;;;;2.62;82.22;99432.66;5091149;28;20161;-50
2021/12/27 04:40:33;;;;;;;112.30;53.13;;;;;;;2.60;81.26;99429.34;5090973;28;20085;-52
2021/12/27 04:43:07;;;;;;;116.18;55.22;;;;;;;2.47;82.18;99420.09;5090707;28;20024;-49
2021/12/27 04:45:33;;;;;;;110.00;52.25;;;;;;;2.48;82.47;99431.47;5091340;28;20020;-51
2021/12/27 04:47:58;;;;;;;110.72;52.15;;;;;;;2.62;81.83;99428.22;5090640;28;20536;-49
2021/12/27 04:50:25;;;;;;;112.68;55.00;;;;;;;2.49;82.43;99418.13;5091258;28;20016;-48
2021/12/27 04:52:53;;;;;;;108.95;54.72;;;;;;;2.54;83.13;99421.13;5090908;28;20364;-50
2021/12/27 04:55:23;;;;;;;103.30;51.70;;;;;;;2.35;83.35;99421.38;5090973;28;20425;-50
2021/12/27 04:57:49;;;;;;;101.78;50.58;;;;;;;2.46;82.89;99417.66;5090500;28;20016;-52
2021/12/27 05:00:14;;;;;;;107.85;51.22;;;;;;;2.41;82.71;99425.19;5090325;28;20030;-50
2021/12/27 05:02:40;;;;;;;102.88;51.42;;;;;;;2.39;82.28;99424.53;5090442;28;20371;-51
2021/12/27 05:05:06;;;;;;;104.10;50.97;;;;;;;2.33;83.68;99426.78;5090595;28;20384;-51
2021/12/27 05:07:31;;;;;;;101.70;49.95;;;;;;;2.33;82.02;99418.09;5090700;28;20078;-51
2021/12/27 05:09:57;;;;;;;97.75;48.25;;;;;;;2.34;82.99;99431.09;5090518;28;20085;-50
2021/12/27 05:12:22;;;;;;;108.53;52.05;;;;;;;2.30;83.99;99424.50;5089406;28;20039;-50
2021/12/27 05:14:47;;;;;;;109.57;53.67;;;;;;;2.44;83.59;99433.56;5090568;28;20438;-51
2021/12/27 05:17:13;;;;;;;100.10;50.95;;;;;;;2.42;81.95;99438.16;5090355;28;20031;-51
2021/12/27 05:19:38;;;;;;;96.13;49.45;;;;;;;2.48;82.73;99444.59;5090442;28;20093;-51
2021/12/27 05:22:04;;;;;;;95.03;47.03;;;;;;;2.42;82.76;99438.16;5090411;28;20028;-53
2021/12/27 05:24:29;;;;;;;100.22;49.03;;;;;;;2.51;83.41;99444.25;5090044;28;20456;-50
2021/12/27 05:26:55;;;;;;;99.05;48.70;;;;;;;2.50;83.10;99451.31;5090234;28;20024;-52
2021/12/27 05:29:21;;;;;;;102.10;48.90;;;;;;;2.56;82.33;99455.13;5090463;28;20035;-52
2021/12/27 05:31:46;;;;;;;102.88;50.65;;;;;;;2.36;83.91;99457.16;5090457;28;20043;-51
2021/12/27 05:34:14;;;;;;;97.32;50.28;;;;;;;2.81;82.39;99463.91;5090371;28;20464;-51
2021/12/27 05:36:42;;;;;;;100.75;50.22;;;;;;;2.46;82.70;99457.88;5089841;28;20098;-48
2021/12/27 05:39:09;;;;;;;98.25;49.17;;;;;;;2.62;81.95;99457.09;5089832;28;20122;-52
2021/12/27 05:41:35;;;;;;;103.30;51.38;;;;;;;2.43;82.29;99454.75;5089619;28;20058;-50
2021/12/27 05:44:00;;;;;;;103.32;50.10;;;;;;;2.63;82.25;99453.50;5089297;28;20551;-52
2021/12/27 05:46:26;;;;;;;99.18;49.38;;;;;;;2.60;82.40;99453.00;5089686;28;20096;-51
2021/12/27 05:48:51;;;;;;;92.40;46.25;;;;;;;2.73;83.27;99454.19;5086371;28;20020;-49
2021/12/27 05:51:17;;;;;;;99.15;48.95;;;;;;;2.60;82.15;99461.69;5073576;28;20082;-49
2021/12/27 05:53:42;;;;;;;98.88;50.42;;;;;;;2.71;81.01;99448.28;5070527;28;20465;-51
2021/12/27 05:56:08;;;;;;;112.80;53.28;;;;;;;3.59;86.29;99460.06;5086560;28;20043;-51
2021/12/27 05:58:33;;;;;;;108.45;52.65;;;;;;;3.12;79.56;99451.00;5089225;28;20360;-49
2021/12/27 06:00:59;;;;;;;108.45;52.10;;;;;;;2.81;81.37;99452.56;5089322;28;20028;-50
2021/12/27 06:03:24;;;;;;;108.72;51.00;;;;;;;2.78;81.36;99460.75;5088990;28;20020;-56
2021/12/27 06:05:50;;;;;;;111.75;53.35;;;;;;;3.12;80.45;99460.69;5088909;28;20498;-50
2021/12/27 06:08:15;;;;;;;106.10;52.10;;;;;;;3.02;80.90;99450.31;5088242;28;20024;-50
2021/12/27 06:10:41;;;;;;;103.55;51.13;;;;;;;3.09;80.48;99448.69;5089116;28;20023;-49
2021/12/27 06:13:06;;;;;;;115.35;54.15;;;;;;;3.05;79.67;99447.38;5087830;28;20492;-49
2021/12/27 06:15:32;;;;;;;108.05;54.30;;;;;;;2.98;80.27;99441.09;5087787;28;20047;-49
2021/12/27 06:17:57;;;;;;;129.43;66.30;;;;;;;2.83;81.77;99442.72;5087579;28;20032;-52
2021/12/27 06:20:23;;;;;;;158.95;78.88;;;;;;;3.12;80.17;99448.38;5087565;28;20035;-49
2021/12/27 06:22:52;;;;;;;221.68;109.70;;;;;;;2.78;81.26;99432.69;5087209;28;20012;-49
2021/12/27 06:25:17;;;;;;;189.83;92.43;;;;;;;2.82;82.01;99447.16;5087405;28;20072;-51
2021/12/27 06:27:43;;;;;;;178.63;86.72;;;;;;;2.85;82.13;99446.00;5085597;28;20050;-54
2021/12/27 06:30:09;;;;;;;152.55;72.38;;;;;;;2.79;82.20;99431.69;5069876;28;20353;-52
2021/12/27 06:32:35;;;;;;;219.43;102.68;;;;;;;2.75;82.33;99435.63;5088636;28;20039;-48
2021/12/27 06:35:01;;;;;;;132.00;65.68;;;;;;;2.71;82.13;99429.88;5090468;28;20686;-48
2021/12/27 06:37:27;;;;;;;128.10;64.30;;;;;;;2.78;82.93;99456.34;5091539;28;20031;-53
2021/12/27 06:39:52;;;;;;;113.25;56.15;;;;;;;2.94;82.33;99452.94;5092595;28;20020;-49
2021/12/27 06:42:18;;;;;;;110.88;55.13;;;;;;;2.94;82.46;99453.75;5092480;28;20027;-50
2021/12/27 06:44:43;;;;;;;108.93;56.25;;;;;;;3.10;82.70;99449.50;5092328;28;20020;-52
2021/12/27 06:47:09;;;;;;;116.85;59.30;;;;;;;3.19;81.77;99445.09;5092498;28;20356;-52
2021/12/27 06:49:36;;;;;;;108.22;55.08;;;;;;;3.85;79.06;99448.53;5092224;28;20028;-48
2021/12/27 06:52:02;;;;;;;123.35;59.15;;;;;;;3.63;78.77;99452.66;5092328;28;20043;-49
2021/12/27 06:54:27;;;;;;;134.18;67.43;;;;;;;3.56;80.05;99452.50;5092097;28;20036;-51
2021/12/27 06:56:54;;;;;;;129.60;66.55;;;;;;;3.48;80.32;99458.59;5092170;28;20024;-51
2021/12/27 06:59:20;;;;;;;131.98;67.95;;;;;;;3.64;79.18;99441.97;5092009;28;20383;-49
2021/12/27 07:01:45;;;;;;;152.25;77.75;;;;;;;3.46;80.32;99450.00;5092332;28;20111;-52
2021/12/27 07:04:11;;;;;;;171.18;88.82;;;;;;;3.72;80.04;99441.13;5092099;28;20027;-50
2021/12/27 07:06:36;;;;;;;173.52;87.68;;;;;;;3.74;78.98;99433.88;5092011;28;20115;-48
2021/12/27 07:09:04;;;;;;;172.15;88.78;;;;;;;3.68;80.02;99437.19;5092258;28;20028;-52
2021/12/27 07:11:30;;;;;;;149.50;77.90;;;;;;;3.88;80.08;99437.66;5091806;28;20513;-50
2021/12/27 07:13:56;;;;;;;187.18;94.60;;;;;;;4.18;78.32;99446.63;5091908;28;20403;-48
2021/12/27 07:16:25;;;;;;;193.23;98.93;;;;;;;4.02;79.67;99442.25;5092220;28;20020;-52
2021/12/27 07:18:51;;;;;;;185.85;98.88;;;;;;;4.35;78.92;99443.94;5092165;28;20415;-49
2021/12/27 07:21:16;;;;;;;183.80;94.80;;;;;;;4.14;78.77;99440.06;5091902;28;20020;-49
2021/12/27 07:23:44;;;;;;;191.02;98.03;;;;;;;4.21;78.34;99433.13;5091991;28;20326;-49
2021/12/27 07:26:09;;;;;;;181.73;92.82;;;;;;;4.32;77.59;99453.00;5091962;28;20022;-49
2021/12/27 07:28:35;;;;;;;177.73;91.45;;;;;;;4.14;78.43;99455.88;5091022;28;20028;-49
2021/12/27 07:31:00;;;;;;;170.30;89.78;;;;;;;4.45;77.20;99455.09;5090152;28;20122;-49
2021/12/27 07:33:25;;;;;;;151.15;77.50;;;;;;;4.38;77.77;99452.34;5091342;28;20020;-48
2021/12/27 07:35:51;;;;;;;162.38;81.72;;;;;;;4.22;79.12;99460.28;5091550;28;20503;-51
2021/12/27 07:38:16;;;;;;;165.68;84.45;;;;;;;4.36;78.11;99448.22;5091639;28;20052;-51
2021/12/27 07:40:42;;;;;;;154.52;80.03;;;;;;;4.59;76.93;99441.22;5091157;28;20024;-50
2021/12/27 07:43:07;;;;;;;154.18;78.88;;;;;;;4.52;77.86;99450.78;5091383;28;20012;-49
2021/12/27 07:45:33;;;;;;;153.73;80.40;;;;;;;4.44;78.49;99451.66;5089574;28;20093;-51
2021/12/27 07:47:58;;;;;;;146.25;77.55;;;;;;;4.59;76.92;99454.41;5091505;28;20035;-48
2021/12/27 07:50:24;;;;;;;151.95;74.75;;;;;;;4.75;77.55;99447.41;5091392;28;20028;-49
2021/12/27 07:52:50;;;;;;;156.68;80.80;;;;;;;4.78;76.74;99442.59;5091404;28;20373;-49
2021/12/27 07:55:16;;;;;;;154.35;81.32;;;;;;;4.68;76.84;99452.53;5089638;28;20012;-49
2021/12/27 07:57:42;;;;;;;138.77;71.13;;;;;;;4.77;77.51;99456.75;5090705;28;20020;-51
2021/12/27 08:00:08;;;;;;;133.80;70.55;;;;;;;4.67;77.31;99461.44;5090560;28;20127;-49
2021/12/27 08:02:33;;;;;;;146.25;76.40;;;;;;;4.74;76.77;99443.09;5091521;28;20020;-51
2021/12/27 08:04:59;;;;;;;136.88;71.15;;;;;;;4.91;75.91;99444.66;5090982;28;20174;-49
2021/12/27 08:07:24;;;;;;;146.07;75.03;;;;;;;5.03;75.67;99445.09;5090580;28;20055;-50
2021/12/27 08:09:50;;;;;;;141.10;77.55;;;;;;;5.21;74.81;99439.53;5090688;28;20519;-48
2021/12/27 08:12:16;;;;;;;135.57;73.75;;;;;;;5.40;74.06;99440.88;5090568;28;20092;-49
2021/12/27 08:14:41;;;;;;;138.20;71.95;;;;;;;5.13;75.34;99456.22;5090501;28;20549;-48
2021/12/27 08:17:07;;;;;;;132.32;70.05;;;;;;;5.21;75.62;99435.06;5091114;28;20544;-50
2021/12/27 08:19:33;;;;;;;133.50;71.47;;;;;;;5.13;75.77;99436.94;5091715;28;20495;-58
2021/12/27 08:21:59;;;;;;;128.02;67.13;;;;;;;5.43;77.29;99441.34;5090495;28;20169;-51
2021/12/27 08:24:24;;;;;;;133.82;70.97;;;;;;;5.48;74.37;99435.50;5090654;28;20020;-48
2021/12/27 08:26:50;;;;;;;133.70;71.95;;;;;;;5.50;74.29;99430.88;5090614;28;20032;-50
2021/12/27 08:29:15;;;;;;;120.13;65.65;;;;;;;5.48;74.93;99446.06;5090655;28;20020;-51
2021/12/27 08:31:41;;;;;;;126.93;65.38;;;;;;;5.34;75.48;99436.31;5090250;28;20028;-49
2021/12/27 08:34:06;;;;;;;156.10;81.22;;;;;;;5.34;75.77;99425.75;5089927;28;20028;-49
2021/12/27 08:36:32;;;;;;;187.48;94.85;;;;;;;5.40;75.74;99423.19;5090076;28;20024;-51
2021/12/27 08:38:57;;;;;;;123.80;66.55;;;;;;;5.63;74.63;99435.56;5090151;28;20023;-51
2021/12/27 08:41:27;;;;;;;123.28;63.00;;;;;;;5.56;75.02;99437.25;5090254;28;20017;-52
2021/12/27 08:44:01;;;;;;;114.50;61.40;;;;;;;5.42;74.99;99439.69;5089682;28;20020;-50
2021/12/27 08:46:26;;;;;;;116.15;60.78;;;;;;;5.55;74.94;99422.44;5089737;28;20028;-51
2021/12/27 08:48:52;;;;;;;119.22;60.97;;;;;;;5.59;74.63;99437.72;5089475;28;20502;-49
2021/12/27 08:51:17;;;;;;;119.82;63.08;;;;;;;5.66;74.91;99425.47;5089939;28;20520;-51
2021/12/27 08:53:43;;;;;;;130.43;63.83;;;;;;;5.89;73.71;99424.59;5089265;28;20031;-49
2021/12/27 08:56:08;;;;;;;126.32;64.22;;;;;;;5.82;74.29;99419.19;5089260;28;20027;-50
2021/12/27 08:58:34;;;;;;;127.07;66.32;;;;;;;5.84;73.65;99413.72;5089001;28;20106;-50
2021/12/27 09:00:59;;;;;;;113.72;59.70;;;;;;;5.90;73.80;99412.19;5089712;28;20460;-50
2021/12/27 09:03:25;;;;;;;120.43;62.33;;;;;;;5.82;74.50;99418.38;5089853;28;20019;-51
2021/12/27 09:05:50;;;;;;;117.38;62.22;;;;;;;5.98;74.52;99418.25;5089587;28;20100;-49
2021/12/27 09:08:16;;;;;;;124.20;64.30;;;;;;;6.29;72.21;99419.88;5090014;28;20104;-51
2021/12/27 09:10:41;;;;;;;122.90;64.07;;;;;;;6.43;71.78;99424.31;5089283;28;20027;-48
2021/12/27 09:13:07;;;;;;;124.18;64.75;;;;;;;6.15;72.91;99410.97;5088731;28;20020;-49
2021/12/27 09:15:32;;;;;;;119.38;63.25;;;;;;;6.00;74.60;99410.16;5089292;28;20026;-52
2021/12/27 09:17:58;;;;;;;123.85;63.40;;;;;;;6.19;73.74;99406.97;5089021;28;20016;-50
2021/12/27 09:20:25;;;;;;;123.18;63.22;;;;;;;7.05;70.66;99414.25;5087589;28;20028;-52
2021/12/27 09:22:50;;;;;;;118.22;61.35;;;;;;;6.83;72.24;99410.75;5089296;28;20012;-49
2021/12/27 09:25:16;;;;;;;205.88;104.50;;;;;;;6.58;73.74;99413.72;5089073;28;20016;-49
2021/12/27 09:27:41;;;;;;;165.10;86.47;;;;;;;6.67;73.75;99400.41;5089643;28;20107;-48
2021/12/27 09:30:08;;;;;;;116.95;62.40;;;;;;;6.42;72.50;99392.81;5089388;28;20103;-50
2021/12/27 09:32:33;;;;;;;120.85;62.47;;;;;;;6.36;72.71;99398.81;5087760;28;20028;-51
2021/12/27 09:34:59;;;;;;;116.40;62.65;;;;;;;6.43;73.22;99394.44;5089381;28;20039;-49
2021/12/27 09:37:24;;;;;;;120.43;63.08;;;;;;;6.43;73.17;99400.53;5089560;28;20048;-49
2021/12/27 09:39:53;;;;;;;123.28;63.05;;;;;;;6.53;72.86;99396.78;5089333;28;20127;-47
2021/12/27 09:42:21;;;;;;;125.07;63.20;;;;;;;6.24;73.41;99391.38;5089310;28;20416;-49
2021/12/27 09:44:46;;;;;;;97.40;53.03;;;;;;;7.24;81.82;99394.28;5089740;28;20078;-56
2021/12/27 09:47:12;;;;;;;113.78;60.85;;;;;;;8.84;70.93;99387.25;5089892;28;20495;-50
2021/12/27 09:49:37;;;;;;;95.03;52.45;;;;;;;9.96;69.21;99388.25;5089657;28;20035;-49
2021/12/27 09:52:03;;;;;;;113.22;58.05;;;;;;;9.69;65.74;99394.63;5088557;28;20024;-48
2021/12/27 09:54:29;;;;;;;108.25;55.53;;;;;;;9.60;68.16;99383.41;5088368;28;20024;-50
2021/12/27 09:56:54;;;;;;;108.88;59.30;;;;;;;9.88;61.45;99377.88;5088469;28;20020;-49
2021/12/27 09:59:20;;;;;;;92.72;53.40;;;;;;;10.05;64.15;99378.22;5089063;28;20020;-49
2021/12/27 10:01:46;;;;;;;104.13;58.67;;;;;;;10.09;59.97;99363.50;5087599;28;20028;-48
2021/12/27 10:04:11;;;;;;;92.45;53.55;;;;;;;10.46;63.44;99360.31;5087531;28;20032;-49
2021/12/27 10:06:37;;;;;;;92.20;52.55;;;;;;;10.82;62.08;99374.88;5088585;28;20110;-51
2021/12/27 10:09:07;;;;;;;104.13;59.22;;;;;;;10.65;58.74;99371.88;5090336;28;20417;-49
2021/12/27 10:11:38;;;;;;;108.15;60.95;;;;;;;9.65;59.71;99369.50;5093226;28;20028;-49
2021/12/27 10:14:20;;;;;;;111.63;62.20;;;;;;;8.94;62.50;99371.72;5092826;28;20032;-48
2021/12/27 10:16:47;;;;;;;115.03;62.88;;;;;;;8.16;65.53;99364.13;5093612;28;20031;-50
2021/12/27 10:19:16;;;;;;;109.90;60.65;;;;;;;7.60;66.44;99353.63;5093539;28;20040;-49
2021/12/27 10:21:42;;;;;;;108.38;59.80;;;;;;;7.80;66.88;99356.38;5093358;28;20028;-48
2021/12/27 10:24:16;;;;;;;110.60;60.58;;;;;;;7.52;68.09;99351.09;5092986;28;20030;-50
2021/12/27 10:26:43;;;;;;;106.72;58.95;;;;;;;8.01;67.43;99351.03;5093154;28;20443;-50
2021/12/27 10:29:18;;;;;;;115.20;61.33;;;;;;;7.99;66.42;99329.16;5093371;28;20051;-47
2021/12/27 10:31:57;;;;;;;111.55;60.53;;;;;;;7.58;67.84;99335.28;5092950;28;20447;-49
2021/12/27 10:34:24;;;;;;;113.43;60.25;;;;;;;7.22;69.47;99327.47;5092904;28;20095;-47
2021/12/27 10:37:06;;;;;;;110.05;59.65;;;;;;;6.96;70.15;99334.16;5092639;28;20054;-49
2021/12/27 10:39:48;;;;;;;105.05;56.83;;;;;;;6.95;70.91;99326.41;5092753;28;20419;-48
2021/12/27 10:42:25;;;;;;;102.30;57.13;;;;;;;7.15;69.62;99335.34;5091751;28;20510;-49
2021/12/27 10:44:53;;;;;;;102.10;54.88;;;;;;;7.18;70.55;99326.22;5092545;28;20032;-49
2021/12/27 10:47:33;;;;;;;108.43;54.55;;;;;;;7.34;69.88;99311.88;5092398;28;20111;-49
2021/12/27 10:50:04;;;;;;;90.10;50.53;;;;;;;7.13;70.75;99321.50;5092396;28;20071;-51
2021/12/27 10:52:59;;;;;;;85.85;47.45;;;;;;;7.12;70.58;99313.75;5092208;28;20059;-48
2021/12/27 10:55:24;;;;;;;122.43;66.35;;;;;;;7.28;70.37;99302.06;5083326;28;20032;-46
2021/12/27 10:57:50;;;;;;;136.98;70.32;;;;;;;7.44;70.59;99315.00;5092555;28;20023;-49
2021/12/27 11:00:21;;;;;;;84.05;46.33;;;;;;;7.19;69.78;99288.16;5092521;28;20062;-50
2021/12/27 11:02:47;;;;;;;81.70;46.50;;;;;;;7.19;70.75;99299.56;5092466;28;20103;-47
2021/12/27 11:05:18;;;;;;;84.28;47.63;;;;;;;7.27;70.51;99288.00;5093105;28;20103;-50
2021/12/27 11:07:43;;;;;;;78.72;45.78;;;;;;;7.19;70.65;99293.44;5092654;28;20067;-48
2021/12/27 11:10:09;;;;;;;83.13;46.45;;;;;;;7.37;69.80;99299.09;5092383;28;20020;-48
2021/12/27 11:12:35;;;;;;;82.78;46.75;;;;;;;7.58;69.02;99284.97;5092173;28;20020;-49
2021/12/27 11:15:00;;;;;;;82.45;45.95;;;;;;;7.39;69.79;99290.97;5092400;28;20023;-48
2021/12/27 11:17:25;;;;;;;83.22;46.53;;;;;;;7.97;68.26;99280.03;5092097;28;20031;-47
2021/12/27 11:19:51;;;;;;;79.00;45.25;;;;;;;8.23;66.95;99280.13;5090335;28;20039;-50
2021/12/27 11:22:16;;;;;;;84.63;45.67;;;;;;;7.99;67.51;99273.53;5091674;28;20021;-47